Time;durP1;ratioP1;P1;durP2;ratioP2;P2;SDS_P1;SDS_P2;PMS_P1;PMS_P2;Temp;Humidity;BMP_temperature;BMP_pressure;BME280_temperature;BME280_humidity;BME280_pressure;Samples;Min_cycle;Max_cycle;Signal;HPM_P1;HPM_P2
2023/06/25 00:01:57;;;;;;;7.97;6.40;;;15.30;81.40;;;;;;5026181;28;20478;-61
2023/06/25 00:04:22;;;;;;;10.33;6.83;;;15.20;81.70;;;;;;5024433;28;20184;-61
2023/06/25 00:06:48;;;;;;;10.43;6.30;;;15.20;81.50;;;;;;5021351;28;20181;-62
2023/06/25 00:09:13;;;;;;;8.23;6.70;;;15.20;82.10;;;;;;5024096;28;20169;-62
2023/06/25 00:11:39;;;;;;;9.53;7.00;;;15.10;82.60;;;;;;5029701;28;20183;-62
2023/06/25 00:14:05;;;;;;;9.73;6.83;;;15.10;82.80;;;;;;5029007;28;20184;-61
2023/06/25 00:16:33;;;;;;;7.97;6.40;;;15.10;83.30;;;;;;5028081;28;20176;-59
2023/06/25 00:19:00;;;;;;;9.20;7.00;;;15.00;84.30;;;;;;5024356;28;20979;-62
2023/06/25 00:21:26;;;;;;;12.07;7.90;;;15.00;84.70;;;;;;5022631;28;20467;-62
2023/06/25 00:23:51;;;;;;;10.57;7.07;;;14.90;84.90;;;;;;5027932;28;20492;-62
2023/06/25 00:26:17;;;;;;;10.40;7.17;;;14.90;85.50;;;;;;5025628;28;20187;-62
2023/06/25 00:28:42;;;;;;;9.07;7.07;;;14.90;86.20;;;;;;5024056;28;20689;-63
2023/06/25 00:31:08;;;;;;;9.83;7.10;;;14.90;87.10;;;;;;5023385;28;20209;-62
2023/06/25 00:33:34;;;;;;;8.77;6.73;;;14.80;86.90;;;;;;5022788;28;20180;-62
2023/06/25 00:36:08;;;;;;;9.20;6.57;;;14.80;86.70;;;;;;5026252;28;20208;-62
2023/06/25 00:38:38;;;;;;;7.67;6.20;;;14.80;87.80;;;;;;5025115;28;20207;-63
2023/06/25 00:41:08;;;;;;;8.90;7.23;;;14.80;88.20;;;;;;5024718;28;21002;-63
2023/06/25 00:43:34;;;;;;;9.67;6.97;;;14.70;88.80;;;;;;5020289;28;20410;-60
2023/06/25 00:46:00;;;;;;;13.03;7.30;;;14.70;89.60;;;;;;5023042;28;20445;-62
2023/06/25 00:48:27;;;;;;;9.10;6.77;;;14.60;90.00;;;;;;5024417;28;20191;-61
2023/06/25 00:50:53;;;;;;;8.73;6.20;;;14.60;90.30;;;;;;5022360;28;20932;-61
2023/06/25 00:53:20;;;;;;;9.83;7.00;;;14.60;90.60;;;;;;5027685;28;20434;-61
2023/06/25 00:55:50;;;;;;;10.60;7.13;;;14.60;91.00;;;;;;5027563;28;20183;-60
2023/06/25 00:58:20;;;;;;;11.20;7.00;;;14.50;91.40;;;;;;5017760;28;20458;-58
2023/06/25 01:00:46;;;;;;;7.67;6.83;;;14.50;91.50;;;;;;5026381;28;20450;-61
2023/06/25 01:03:36;;;;;;;8.37;6.77;;;14.50;92.20;;;;;;5023726;28;20434;-61
2023/06/25 01:06:12;;;;;;;8.87;6.93;;;14.40;91.70;;;;;;5030439;28;20480;-59
2023/06/25 01:08:38;;;;;;;8.43;6.50;;;14.40;91.90;;;;;;5030151;28;20949;-63
2023/06/25 01:11:05;;;;;;;7.53;6.23;;;14.40;92.00;;;;;;5022089;28;20430;-61
2023/06/25 01:13:31;;;;;;;8.07;6.37;;;14.40;92.40;;;;;;5020986;28;20961;-60
2023/06/25 01:15:57;;;;;;;11.70;6.30;;;14.30;92.50;;;;;;5024697;28;20426;-62
2023/06/25 01:18:23;;;;;;;10.03;7.30;;;14.30;92.70;;;;;;5024665;28;20208;-62
2023/06/25 01:20:53;;;;;;;10.87;7.33;;;14.30;93.40;;;;;;5015901;28;20223;-62
2023/06/25 01:23:21;;;;;;;11.03;6.53;;;14.20;93.70;;;;;;5021524;28;20183;-61
2023/06/25 01:25:48;;;;;;;8.27;7.07;;;14.20;94.20;;;;;;5020243;28;20446;-60
2023/06/25 01:28:14;;;;;;;10.67;7.23;;;14.20;94.60;;;;;;5022779;28;20927;-62
2023/06/25 01:30:40;;;;;;;9.37;7.27;;;14.10;95.10;;;;;;5025386;28;20427;-63
2023/06/25 01:33:05;;;;;;;9.07;7.07;;;14.10;95.50;;;;;;5026964;28;20437;-60
2023/06/25 01:35:31;;;;;;;10.73;6.77;;;14.10;95.80;;;;;;5019080;28;20194;-60
2023/06/25 01:37:58;;;;;;;7.00;6.07;;;14.10;95.60;;;;;;5020482;28;20330;-64
2023/06/25 01:40:24;;;;;;;9.07;6.83;;;14.00;96.00;;;;;;5023083;28;20196;-62
2023/06/25 01:42:50;;;;;;;9.63;7.07;;;14.00;96.00;;;;;;5021372;28;20518;-62
2023/06/25 01:45:15;;;;;;;9.17;7.40;;;13.90;96.10;;;;;;5019789;28;20172;-61
2023/06/25 01:47:41;;;;;;;8.60;7.23;;;13.90;96.50;;;;;;5015929;28;20681;-63
2023/06/25 01:50:08;;;;;;;10.40;7.30;;;13.80;97.00;;;;;;5018623;28;20887;-64
2023/06/25 01:52:34;;;;;;;8.33;6.47;;;13.80;97.10;;;;;;5026446;28;20243;-62
2023/06/25 01:55:00;;;;;;;8.63;7.10;;;13.80;98.00;;;;;;5021882;28;20549;-62
2023/06/25 01:57:25;;;;;;;9.43;7.20;;;13.70;98.40;;;;;;5018908;28;20203;-62
2023/06/25 01:59:51;;;;;;;9.07;7.00;;;13.70;98.50;;;;;;5019064;28;20175;-63
2023/06/25 02:02:16;;;;;;;10.40;7.00;;;13.70;98.80;;;;;;5022295;28;20234;-62
2023/06/25 02:04:42;;;;;;;7.37;5.90;;;13.60;99.00;;;;;;5017075;28;20195;-63
2023/06/25 02:07:08;;;;;;;10.63;8.13;;;13.60;99.40;;;;;;5021056;28;20199;-62
2023/06/25 02:09:34;;;;;;;11.97;7.17;;;13.60;99.70;;;;;;5024860;28;21084;-63
2023/06/25 02:12:00;;;;;;;9.17;7.23;;;13.50;99.90;;;;;;5020463;28;20270;-62
2023/06/25 02:14:25;;;;;;;9.57;6.70;;;13.50;99.90;;;;;;5024685;28;20521;-62
2023/06/25 02:16:51;;;;;;;10.93;7.13;;;13.50;99.90;;;;;;5020008;28;20180;-62
2023/06/25 02:19:16;;;;;;;9.87;7.20;;;13.50;99.90;;;;;;5023797;28;20187;-61
2023/06/25 02:21:42;;;;;;;8.13;6.60;;;13.50;99.90;;;;;;5022527;28;20203;-63
2023/06/25 02:24:08;;;;;;;8.93;6.73;;;13.50;99.90;;;;;;5023928;28;20187;-62
2023/06/25 02:26:33;;;;;;;9.27;6.50;;;13.40;99.90;;;;;;5024693;28;20645;-62
2023/06/25 02:28:59;;;;;;;11.17;7.40;;;13.40;99.90;;;;;;5017011;28;20204;-60
2023/06/25 02:31:26;;;;;;;9.73;6.77;;;13.40;99.90;;;;;;5020883;28;20253;-61
2023/06/25 02:33:52;;;;;;;9.93;6.77;;;13.40;99.90;;;;;;5021332;28;20199;-61
2023/06/25 02:36:18;;;;;;;10.60;6.27;;;13.40;99.90;;;;;;5024049;28;20818;-62
2023/06/25 02:38:43;;;;;;;7.77;6.70;;;13.40;99.90;;;;;;5022403;28;20218;-62
2023/06/25 02:41:09;;;;;;;15.00;6.07;;;13.30;99.90;;;;;;5020050;28;20204;-65
2023/06/25 02:43:34;;;;;;;11.10;7.10;;;13.30;99.90;;;;;;5022527;28;20265;-62
2023/06/25 02:46:00;;;;;;;7.87;6.47;;;13.30;99.90;;;;;;5027250;28;20172;-63
2023/06/25 02:48:25;;;;;;;8.00;6.30;;;13.20;99.90;;;;;;5020455;28;20199;-64
2023/06/25 02:50:51;;;;;;;9.57;7.17;;;13.20;99.90;;;;;;5021473;28;20834;-61
2023/06/25 02:53:17;;;;;;;11.13;7.00;;;13.20;99.90;;;;;;5025407;28;20254;-61
2023/06/25 02:55:42;;;;;;;8.43;6.93;;;13.10;99.90;;;;;;5017655;28;20523;-61
2023/06/25 02:58:08;;;;;;;9.93;6.90;;;13.10;99.90;;;;;;5019631;28;20247;-63
2023/06/25 03:00:33;;;;;;;7.13;6.13;;;13.10;99.90;;;;;;5025107;28;20199;-60
2023/06/25 03:02:59;;;;;;;9.63;7.30;;;13.10;99.90;;;;;;5026922;28;20172;-62
2023/06/25 03:05:24;;;;;;;8.17;7.07;;;13.00;99.90;;;;;;5028964;28;20176;-63
2023/06/25 03:07:51;;;;;;;8.03;6.07;;;13.00;99.90;;;;;;5025885;28;20289;-63
2023/06/25 03:10:18;;;;;;;8.63;6.90;;;13.10;99.90;;;;;;5024776;28;20183;-61
2023/06/25 03:12:44;;;;;;;8.10;6.97;;;13.00;99.90;;;;;;5023577;28;20430;-63
2023/06/25 03:15:09;;;;;;;11.83;6.80;;;13.00;99.90;;;;;;5028324;28;20891;-61
2023/06/25 03:17:35;;;;;;;8.53;6.80;;;13.00;99.90;;;;;;5029657;28;20696;-61
2023/06/25 03:20:03;;;;;;;8.83;6.60;;;12.90;99.90;;;;;;5026682;28;20188;-60
2023/06/25 03:22:29;;;;;;;9.40;7.33;;;12.90;99.90;;;;;;5028639;28;20180;-63
2023/06/25 03:24:54;;;;;;;7.40;6.63;;;12.90;99.90;;;;;;5034816;28;20430;-63
2023/06/25 03:27:20;;;;;;;12.33;7.07;;;12.90;99.90;;;;;;5032975;28;20222;-62
2023/06/25 03:29:45;;;;;;;10.87;7.17;;;12.80;99.90;;;;;;5029354;28;20195;-62
2023/06/25 03:32:11;;;;;;;11.20;7.20;;;12.90;99.90;;;;;;5027480;28;20211;-63
2023/06/25 03:34:37;;;;;;;8.67;6.73;;;12.80;99.90;;;;;;5024830;28;20188;-62
2023/06/25 03:37:02;;;;;;;9.47;7.10;;;12.80;99.90;;;;;;5018364;28;20184;-61
2023/06/25 03:39:28;;;;;;;13.53;7.23;;;12.70;99.90;;;;;;5026578;28;20187;-60
2023/06/25 03:41:53;;;;;;;8.90;7.17;;;12.70;99.90;;;;;;5026442;28;20207;-61
2023/06/25 03:44:19;;;;;;;10.73;7.03;;;12.70;99.90;;;;;;5025503;28;20175;-64
2023/06/25 03:46:45;;;;;;;8.23;6.80;;;12.70;99.90;;;;;;5022763;28;20614;-61
2023/06/25 03:49:10;;;;;;;11.37;7.40;;;12.70;99.90;;;;;;5025729;28;20758;-62
2023/06/25 03:51:36;;;;;;;9.23;6.90;;;12.70;99.90;;;;;;5026851;28;20180;-63
2023/06/25 03:54:01;;;;;;;10.90;7.33;;;12.70;99.90;;;;;;5026383;28;20176;-61
2023/06/25 03:56:27;;;;;;;10.30;6.87;;;12.70;99.90;;;;;;5022766;28;20207;-65
2023/06/25 03:58:52;;;;;;;10.43;7.37;;;12.70;99.90;;;;;;5025103;28;20223;-59
2023/06/25 04:01:18;;;;;;;11.43;7.10;;;12.70;99.90;;;;;;5029519;28;20290;-63
2023/06/25 04:03:44;;;;;;;12.10;7.10;;;12.70;99.90;;;;;;5018391;28;20813;-62
2023/06/25 04:06:09;;;;;;;9.27;7.07;;;12.70;99.90;;;;;;5021722;28;20173;-62
2023/06/25 04:08:38;;;;;;;10.40;7.23;;;12.70;99.90;;;;;;5020797;28;20191;-61
2023/06/25 04:11:04;;;;;;;9.17;6.97;;;12.80;99.90;;;;;;5027799;28;20656;-62
2023/06/25 04:13:29;;;;;;;12.30;6.80;;;12.80;99.90;;;;;;5027898;28;20442;-62
2023/06/25 04:15:55;;;;;;;11.73;7.57;;;12.80;99.90;;;;;;5025614;28;20686;-64
2023/06/25 04:18:20;;;;;;;8.63;6.73;;;12.80;99.90;;;;;;5027092;28;20203;-63
2023/06/25 04:20:46;;;;;;;11.20;8.50;;;12.90;99.90;;;;;;5024943;28;20198;-61
2023/06/25 04:23:11;;;;;;;13.07;7.70;;;12.90;99.90;;;;;;5027101;28;20207;-62
2023/06/25 04:25:37;;;;;;;9.03;7.60;;;12.90;99.90;;;;;;5021126;28;20196;-63
2023/06/25 04:28:03;;;;;;;10.87;8.50;;;13.00;99.90;;;;;;5023743;28;20210;-61
2023/06/25 04:30:28;;;;;;;9.33;7.50;;;13.00;99.90;;;;;;5025538;28;20180;-61
2023/06/25 04:32:54;;;;;;;10.43;7.70;;;13.00;99.90;;;;;;5015185;28;20180;-62
2023/06/25 04:35:20;;;;;;;9.17;7.00;;;13.10;99.90;;;;;;5021828;28;20227;-61
2023/06/25 04:37:45;;;;;;;9.00;7.33;;;13.20;99.90;;;;;;5028248;28;20462;-62
2023/06/25 04:40:12;;;;;;;12.27;7.17;;;13.20;99.90;;;;;;5021442;28;20212;-61
2023/06/25 04:42:38;;;;;;;8.77;7.33;;;13.30;99.90;;;;;;5022400;28;20183;-65
2023/06/25 04:45:04;;;;;;;11.63;8.27;;;13.40;99.90;;;;;;5026295;28;20466;-64
2023/06/25 04:47:31;;;;;;;9.60;7.90;;;13.50;99.90;;;;;;5027491;28;20195;-65
2023/06/25 04:49:57;;;;;;;11.80;7.50;;;13.50;99.90;;;;;;5030070;28;20434;-62
2023/06/25 04:52:23;;;;;;;16.10;8.23;;;13.50;99.90;;;;;;5027445;28;20423;-64
2023/06/25 04:54:49;;;;;;;11.40;8.17;;;13.60;99.90;;;;;;5020972;28;20197;-67
2023/06/25 04:57:14;;;;;;;10.33;7.90;;;13.60;99.90;;;;;;5017044;28;20454;-62
2023/06/25 04:59:40;;;;;;;8.70;7.23;;;13.60;99.90;;;;;;5016761;28;20718;-63
2023/06/25 05:02:06;;;;;;;10.20;7.90;;;13.60;99.90;;;;;;5017831;28;20333;-58
2023/06/25 05:04:32;;;;;;;10.77;7.73;;;13.60;99.90;;;;;;5020366;28;20180;-60
2023/06/25 05:06:57;;;;;;;8.27;6.77;;;13.70;99.90;;;;;;5022507;28;20477;-61
2023/06/25 05:09:24;;;;;;;8.50;6.70;;;13.70;99.90;;;;;;5022496;28;20172;-60
2023/06/25 05:11:49;;;;;;;7.53;6.43;;;13.80;99.90;;;;;;5023072;28;20849;-63
2023/06/25 05:14:15;;;;;;;9.40;6.60;;;13.80;99.90;;;;;;5024531;28;20457;-60
2023/06/25 05:16:40;;;;;;;8.40;6.40;;;13.90;99.90;;;;;;5020981;28;20267;-61
2023/06/25 05:19:06;;;;;;;7.33;6.30;;;14.00;99.90;;;;;;5011905;28;20207;-58
2023/06/25 05:21:31;;;;;;;8.60;6.60;;;14.00;99.90;;;;;;5020090;28;20199;-57
2023/06/25 05:23:59;;;;;;;8.50;6.87;;;14.10;99.90;;;;;;5017162;28;20172;-58
2023/06/25 05:26:25;;;;;;;11.67;6.73;;;14.20;99.90;;;;;;5022142;28;20173;-57
2023/06/25 05:28:51;;;;;;;9.90;7.10;;;14.30;99.10;;;;;;5014308;28;20446;-59
2023/06/25 05:31:17;;;;;;;10.43;6.90;;;14.40;97.60;;;;;;5012780;28;20176;-57
2023/06/25 05:33:42;;;;;;;8.50;6.93;;;14.50;97.90;;;;;;5020496;28;20175;-58
2023/06/25 05:36:08;;;;;;;8.60;6.67;;;14.60;98.00;;;;;;5021306;28;20299;-60
2023/06/25 05:38:33;;;;;;;10.13;7.23;;;14.80;97.70;;;;;;5013960;28;20219;-57
2023/06/25 05:40:59;;;;;;;9.30;6.40;;;14.90;97.70;;;;;;5014944;28;20207;-63
2023/06/25 05:43:24;;;;;;;7.93;6.30;;;15.00;96.80;;;;;;5016242;28;20607;-62
2023/06/25 05:45:50;;;;;;;8.10;6.70;;;15.10;96.40;;;;;;5017072;28;20216;-65
2023/06/25 05:48:16;;;;;;;9.23;6.93;;;15.20;97.10;;;;;;5017570;28;20309;-60
2023/06/25 05:50:41;;;;;;;7.90;6.93;;;15.30;96.80;;;;;;5013616;28;20968;-65
2023/06/25 05:53:08;;;;;;;8.57;6.60;;;15.40;96.40;;;;;;5012386;28;20184;-66
2023/06/25 05:55:33;;;;;;;10.50;6.80;;;15.40;96.70;;;;;;5014454;28;20807;-61
2023/06/25 05:57:59;;;;;;;8.50;6.70;;;15.50;96.40;;;;;;5013826;28;20454;-63
2023/06/25 06:00:24;;;;;;;9.57;7.00;;;15.60;97.10;;;;;;5006991;28;20301;-61
2023/06/25 06:02:50;;;;;;;8.40;6.20;;;15.80;97.00;;;;;;5016357;28;20184;-62
2023/06/25 06:05:16;;;;;;;9.67;6.27;;;15.90;96.30;;;;;;5018144;28;20179;-58
2023/06/25 06:07:41;;;;;;;6.73;5.90;;;16.00;95.00;;;;;;5024256;28;20273;-61
2023/06/25 06:10:07;;;;;;;10.13;6.80;;;16.20;93.40;;;;;;5022022;28;20180;-60
2023/06/25 06:12:32;;;;;;;9.70;6.50;;;16.40;92.00;;;;;;5028487;28;20255;-61
2023/06/25 06:14:58;;;;;;;8.00;6.13;;;16.50;90.60;;;;;;5007600;28;20233;-59
2023/06/25 06:17:24;;;;;;;10.60;6.33;;;16.70;89.50;;;;;;5020623;28;20701;-62
2023/06/25 06:19:49;;;;;;;8.67;6.83;;;16.80;87.20;;;;;;5014907;28;20559;-60
2023/06/25 06:22:16;;;;;;;6.00;5.40;;;16.90;86.10;;;;;;5024874;28;20227;-60
2023/06/25 06:24:42;;;;;;;9.60;6.37;;;17.00;86.00;;;;;;5017307;28;20168;-64
2023/06/25 06:27:08;;;;;;;8.63;6.47;;;17.20;85.60;;;;;;5022905;28;20453;-64
2023/06/25 06:29:33;;;;;;;6.77;5.63;;;17.30;85.00;;;;;;5024524;28;20434;-60
2023/06/25 06:31:59;;;;;;;7.47;5.97;;;17.40;83.60;;;;;;5022974;28;20720;-60
2023/06/25 06:34:25;;;;;;;8.57;6.00;;;17.50;81.70;;;;;;5021073;28;20187;-58
2023/06/25 06:36:50;;;;;;;7.73;6.30;;;17.60;79.70;;;;;;5018178;28;20188;-61
2023/06/25 06:39:17;;;;;;;8.00;6.30;;;17.70;78.10;;;;;;5019047;28;20180;-59
2023/06/25 06:41:42;;;;;;;8.90;6.40;;;17.80;77.40;;;;;;5019156;28;20199;-62
2023/06/25 06:44:13;;;;;;;6.87;5.53;;;17.90;76.40;;;;;;5021207;28;20796;-60
2023/06/25 06:46:39;;;;;;;8.40;6.70;;;18.00;76.10;;;;;;5026107;28;20179;-59
2023/06/25 06:49:05;;;;;;;8.13;5.80;;;18.20;75.60;;;;;;5018651;28;20446;-63
2023/06/25 06:51:31;;;;;;;7.57;5.83;;;18.30;74.40;;;;;;5018771;28;20259;-59
2023/06/25 06:53:57;;;;;;;6.43;5.33;;;18.50;71.10;;;;;;5021655;28;20527;-62
2023/06/25 06:56:22;;;;;;;7.43;5.80;;;18.60;69.50;;;;;;5022489;28;20229;-62
2023/06/25 06:58:48;;;;;;;9.00;5.40;;;18.70;67.60;;;;;;5022545;28;20199;-59
2023/06/25 07:01:14;;;;;;;7.83;5.47;;;18.90;66.50;;;;;;5016319;28;20191;-61
2023/06/25 07:03:39;;;;;;;5.90;4.93;;;19.00;65.00;;;;;;5014712;28;20180;-61
2023/06/25 07:06:05;;;;;;;8.30;5.63;;;19.10;64.10;;;;;;5022007;28;20191;-60
2023/06/25 07:08:30;;;;;;;6.73;5.43;;;19.30;63.70;;;;;;5022692;28;20191;-60
2023/06/25 07:10:56;;;;;;;5.20;4.70;;;19.40;63.50;;;;;;5022351;28;20238;-62
2023/06/25 07:13:22;;;;;;;5.70;4.47;;;19.60;62.00;;;;;;5027768;28;20238;-62
2023/06/25 07:15:47;;;;;;;7.30;5.17;;;19.70;60.20;;;;;;5023466;28;20184;-61
2023/06/25 07:18:13;;;;;;;8.03;5.00;;;19.90;60.30;;;;;;5023047;28;20569;-61
2023/06/25 07:20:38;;;;;;;5.40;4.27;;;20.00;59.40;;;;;;5019920;28;20289;-63
2023/06/25 07:23:04;;;;;;;10.03;5.27;;;20.10;58.80;;;;;;5024031;28;20249;-62
2023/06/25 07:25:30;;;;;;;8.67;4.40;;;20.20;58.00;;;;;;5024253;28;20178;-61
2023/06/25 07:27:55;;;;;;;7.00;5.30;;;20.30;57.30;;;;;;5022617;28;20188;-61
2023/06/25 07:30:21;;;;;;;5.53;4.63;;;20.40;56.60;;;;;;5019465;28;20260;-62
2023/06/25 07:32:46;;;;;;;7.50;5.17;;;20.50;56.30;;;;;;5020736;28;20199;-61
2023/06/25 07:35:12;;;;;;;9.03;4.50;;;20.60;56.00;;;;;;5022412;28;20842;-62
2023/06/25 07:37:39;;;;;;;8.70;5.47;;;20.80;55.80;;;;;;5022662;28;20208;-61
2023/06/25 07:40:05;;;;;;;5.10;4.60;;;20.80;55.20;;;;;;5019358;28;20180;-63
2023/06/25 07:42:31;;;;;;;5.20;3.90;;;20.90;55.10;;;;;;5020628;28;20434;-60
2023/06/25 07:44:56;;;;;;;6.77;5.03;;;21.00;54.80;;;;;;5023390;28;20438;-60
2023/06/25 07:47:22;;;;;;;5.90;4.10;;;21.10;54.30;;;;;;5026984;28;20685;-59
2023/06/25 07:49:48;;;;;;;6.83;5.03;;;21.20;53.10;;;;;;5027214;28;20229;-59
2023/06/25 07:52:13;;;;;;;6.97;5.13;;;21.30;52.80;;;;;;5024157;28;20180;-60
2023/06/25 07:54:39;;;;;;;6.33;4.80;;;21.40;52.50;;;;;;5026096;28;20653;-60
2023/06/25 07:57:05;;;;;;;7.13;5.13;;;21.50;51.90;;;;;;5021094;28;20814;-64
2023/06/25 07:59:32;;;;;;;7.67;5.00;;;21.50;51.60;;;;;;5022396;28;20214;-59
2023/06/25 08:01:58;;;;;;;5.33;4.33;;;21.70;51.70;;;;;;5023524;28;20831;-62
2023/06/25 08:04:23;;;;;;;6.60;5.40;;;21.70;52.20;;;;;;5018105;28;20422;-62
2023/06/25 08:06:49;;;;;;;5.90;5.30;;;21.80;52.10;;;;;;5018618;28;20191;-58
2023/06/25 08:09:15;;;;;;;8.00;4.90;;;21.90;52.40;;;;;;5020361;28;20184;-62
2023/06/25 08:11:40;;;;;;;8.47;5.30;;;22.00;52.10;;;;;;5024203;28;20652;-63
2023/06/25 08:14:08;;;;;;;12.60;5.00;;;22.00;51.30;;;;;;5018671;28;20249;-63
2023/06/25 08:16:33;;;;;;;6.37;4.73;;;22.00;50.70;;;;;;5020989;28;20187;-63
2023/06/25 08:19:00;;;;;;;8.90;4.80;;;22.10;50.60;;;;;;5019226;28;20450;-63
2023/06/25 08:21:25;;;;;;;6.63;4.70;;;22.10;51.00;;;;;;5021423;28;20208;-61
2023/06/25 08:23:51;;;;;;;8.13;5.00;;;22.20;50.30;;;;;;5025110;28;20456;-61
2023/06/25 08:26:17;;;;;;;6.80;4.90;;;22.30;50.60;;;;;;5021301;28;20213;-61
2023/06/25 08:28:43;;;;;;;6.30;4.77;;;22.30;50.70;;;;;;5018627;28;20664;-63
2023/06/25 08:31:10;;;;;;;5.57;4.80;;;22.40;50.60;;;;;;5027878;28;20194;-62
2023/06/25 08:33:36;;;;;;;7.30;4.97;;;22.40;50.20;;;;;;5026802;28;20187;-61
2023/06/25 08:36:01;;;;;;;6.40;5.30;;;22.50;49.80;;;;;;5019036;28;20451;-61
2023/06/25 08:38:27;;;;;;;7.90;5.20;;;22.60;50.10;;;;;;5020832;28;20543;-63
2023/06/25 08:40:54;;;;;;;6.83;4.90;;;22.60;50.40;;;;;;5026610;28;20250;-61
2023/06/25 08:43:20;;;;;;;7.17;5.20;;;22.70;50.10;;;;;;5020686;28;21111;-60
2023/06/25 08:45:49;;;;;;;7.80;5.40;;;22.80;50.40;;;;;;5022254;28;20554;-60
2023/06/25 08:48:15;;;;;;;5.43;4.53;;;22.90;50.20;;;;;;5020291;28;21259;-63
2023/06/25 08:50:43;;;;;;;6.97;5.03;;;22.90;48.60;;;;;;5027624;28;20427;-61
2023/06/25 08:53:09;;;;;;;9.07;5.37;;;22.90;48.50;;;;;;5023001;28;20938;-63
2023/06/25 08:55:37;;;;;;;6.33;4.97;;;23.00;48.90;;;;;;5028882;28;20548;-63
2023/06/25 08:58:02;;;;;;;6.23;5.00;;;23.10;48.50;;;;;;5028204;28;20442;-60
2023/06/25 09:00:28;;;;;;;8.93;5.40;;;23.20;48.50;;;;;;5017841;28;20459;-63
2023/06/25 09:02:54;;;;;;;6.33;5.30;;;23.30;48.50;;;;;;5024439;28;20183;-61
2023/06/25 09:05:27;;;;;;;7.13;4.83;;;23.30;48.40;;;;;;5019053;28;20270;-61
2023/06/25 09:07:53;;;;;;;8.00;5.00;;;23.40;45.90;;;;;;5026084;28;20451;-65
2023/06/25 09:10:20;;;;;;;7.50;5.73;;;23.40;45.40;;;;;;5021044;28;20476;-61
2023/06/25 09:12:48;;;;;;;5.70;4.80;;;23.50;46.20;;;;;;5024123;28;20445;-61
2023/06/25 09:15:20;;;;;;;6.33;5.40;;;23.60;45.30;;;;;;5026814;28;20466;-63
2023/06/25 09:17:46;;;;;;;8.80;5.53;;;23.70;45.30;;;;;;5025819;28;20461;-59
2023/06/25 09:20:12;;;;;;;7.23;5.33;;;23.80;44.00;;;;;;5021370;28;20427;-63
2023/06/25 09:22:56;;;;;;;6.40;5.70;;;23.90;44.10;;;;;;5022809;28;20184;-61
2023/06/25 09:25:28;;;;;;;6.73;5.27;;;24.00;43.50;;;;;;5026310;28;20433;-60
2023/06/25 09:27:55;;;;;;;6.50;4.70;;;24.10;43.50;;;;;;5021568;28;22463;-61
2023/06/25 09:30:24;;;;;;;7.13;5.60;;;24.20;44.60;;;;;;5028397;28;20450;-62
2023/06/25 09:32:51;;;;;;;7.90;6.17;;;24.30;45.40;;;;;;5021719;28;20430;-60
2023/06/25 09:35:25;;;;;;;6.27;5.47;;;24.40;43.80;;;;;;5024356;28;20450;-62
2023/06/25 09:37:51;;;;;;;7.50;5.93;;;24.50;44.50;;;;;;5026267;28;20464;-62
2023/06/25 09:40:18;;;;;;;11.40;5.17;;;24.60;45.10;;;;;;5028489;28;20430;-61
2023/06/25 09:42:44;;;;;;;5.97;5.03;;;24.70;44.00;;;;;;5026719;28;20426;-61
2023/06/25 09:45:16;;;;;;;8.17;6.13;;;24.80;45.70;;;;;;5022779;28;20428;-63
2023/06/25 09:47:45;;;;;;;6.97;5.60;;;24.90;46.10;;;;;;5023973;28;20446;-63
2023/06/25 09:50:17;;;;;;;7.40;5.73;;;25.00;44.40;;;;;;5027773;28;20464;-63
2023/06/25 09:52:47;;;;;;;8.93;5.93;;;25.10;42.30;;;;;;5025179;28;20456;-60
2023/06/25 09:55:14;;;;;;;7.70;5.33;;;25.10;41.50;;;;;;5017654;28;20427;-59
2023/06/25 09:57:41;;;;;;;6.90;5.73;;;25.30;41.80;;;;;;5019589;28;20443;-62
2023/06/25 10:00:09;;;;;;;8.57;6.13;;;25.40;41.50;;;;;;5027568;28;20433;-62
2023/06/25 10:02:34;;;;;;;8.13;7.10;;;25.40;41.20;;;;;;5032790;28;20974;-64
2023/06/25 10:05:00;;;;;;;11.30;6.20;;;25.50;40.70;;;;;;5030985;28;20431;-63
2023/06/25 10:07:26;;;;;;;9.23;5.93;;;25.60;40.70;;;;;;5035527;28;20200;-61
2023/06/25 10:09:53;;;;;;;7.97;6.33;;;25.60;41.30;;;;;;5034166;28;20255;-63
2023/06/25 10:12:19;;;;;;;7.27;5.90;;;25.70;42.10;;;;;;5031999;28;20213;-63
2023/06/25 10:14:46;;;;;;;8.10;5.53;;;25.80;42.00;;;;;;5021160;28;20463;-62
2023/06/25 10:17:13;;;;;;;8.97;7.00;;;25.80;40.70;;;;;;5025392;28;20240;-62
2023/06/25 10:19:38;;;;;;;9.90;6.70;;;25.90;38.70;;;;;;5022389;28;20840;-61
2023/06/25 10:22:11;;;;;;;10.80;7.30;;;25.90;36.80;;;;;;5018965;28;20986;-59
2023/06/25 10:24:41;;;;;;;6.83;5.80;;;26.00;37.40;;;;;;5015913;28;20182;-61
2023/06/25 10:27:26;;;;;;;11.20;6.40;;;26.10;37.80;;;;;;5020979;28;20425;-60
2023/06/25 10:29:53;;;;;;;9.83;7.30;;;26.20;36.60;;;;;;5014878;28;20434;-59
2023/06/25 10:32:23;;;;;;;10.17;7.13;;;26.30;35.80;;;;;;5019731;28;20445;-60
2023/06/25 10:35:03;;;;;;;9.20;7.20;;;26.30;35.00;;;;;;5025151;28;20441;-61
2023/06/25 10:37:30;;;;;;;7.13;6.20;;;26.40;35.50;;;;;;5025883;28;20461;-60
2023/06/25 10:40:09;;;;;;;7.83;6.57;;;26.50;37.20;;;;;;5023184;28;20432;-63
2023/06/25 10:42:36;;;;;;;8.27;6.40;;;26.50;37.10;;;;;;5024851;28;20422;-59
2023/06/25 10:45:03;;;;;;;9.37;6.80;;;26.70;38.30;;;;;;5026307;28;21165;-58
2023/06/25 10:47:28;;;;;;;10.67;6.83;;;26.80;37.60;;;;;;5026310;28;20449;-61
2023/06/25 10:49:54;;;;;;;9.63;6.60;;;26.80;38.90;;;;;;5019893;28;20438;-63
2023/06/25 10:52:20;;;;;;;6.60;5.70;;;27.00;38.50;;;;;;5026147;28;20171;-61
2023/06/25 10:54:46;;;;;;;8.30;7.07;;;27.00;38.00;;;;;;5024791;28;20368;-60
2023/06/25 10:57:13;;;;;;;8.80;5.97;;;27.10;38.50;;;;;;5025875;28;20825;-61
2023/06/25 10:59:40;;;;;;;6.60;5.50;;;27.20;38.70;;;;;;5018143;28;20205;-61
2023/06/25 11:02:20;;;;;;;7.77;6.23;;;27.20;38.20;;;;;;5023339;28;20199;-60
2023/06/25 11:04:52;;;;;;;8.93;6.80;;;27.30;39.10;;;;;;5021852;28;20191;-60
2023/06/25 11:07:23;;;;;;;7.87;6.07;;;27.40;39.80;;;;;;5020322;28;20254;-60
2023/06/25 11:09:59;;;;;;;7.30;6.07;;;27.60;38.90;;;;;;5027416;28;20643;-61
2023/06/25 11:12:25;;;;;;;7.60;6.20;;;27.60;39.00;;;;;;5027247;28;20211;-63
2023/06/25 11:14:51;;;;;;;8.00;6.23;;;27.70;39.30;;;;;;5014640;28;20738;-59
2023/06/25 11:17:17;;;;;;;8.10;6.77;;;27.80;37.70;;;;;;5026650;28;20207;-60
2023/06/25 11:19:43;;;;;;;8.27;6.47;;;27.90;37.80;;;;;;5030050;28;20179;-62
2023/06/25 11:22:09;;;;;;;8.47;6.70;;;27.90;36.70;;;;;;5032122;28;20244;-60
2023/06/25 11:24:36;;;;;;;8.33;5.90;;;27.90;37.10;;;;;;5026473;28;20244;-60
2023/06/25 11:27:03;;;;;;;8.20;6.07;;;28.00;37.00;;;;;;5026228;28;20191;-59
2023/06/25 11:29:37;;;;;;;7.90;6.20;;;28.10;37.50;;;;;;5029408;28;20213;-60
2023/06/25 11:32:05;;;;;;;7.80;5.90;;;28.20;38.40;;;;;;5024693;28;20517;-61
2023/06/25 11:34:31;;;;;;;8.37;6.10;;;28.20;36.80;;;;;;5018774;28;20189;-60
2023/06/25 11:37:07;;;;;;;6.67;5.47;;;28.30;38.60;;;;;;5026826;28;20183;-59
2023/06/25 11:39:47;;;;;;;8.77;6.35;;;28.40;38.60;;;;;;5022222;28;20198;-60
2023/06/25 11:42:21;;;;;;;6.63;5.93;;;28.50;39.80;;;;;;5028199;28;20805;-59
2023/06/25 11:45:03;;;;;;;6.03;5.15;;;28.60;38.90;;;;;;5024388;28;20176;-58
2023/06/25 11:47:28;;;;;;;7.07;5.70;;;28.60;38.80;;;;;;5030693;28;20206;-60
2023/06/25 11:49:55;;;;;;;6.80;5.20;;;28.60;37.20;;;;;;5029901;28;20230;-59
2023/06/25 11:52:21;;;;;;;8.40;6.13;;;28.60;36.90;;;;;;5025278;28;20234;-61
2023/06/25 11:54:47;;;;;;;10.68;7.22;;;28.60;37.90;;;;;;5024811;28;20183;-60
2023/06/25 11:57:13;;;;;;;7.55;5.95;;;28.70;38.00;;;;;;5025295;28;20565;-62
2023/06/25 11:59:38;;;;;;;7.72;5.65;;;28.70;37.80;;;;;;5023008;28;20758;-62
2023/06/25 12:02:04;;;;;;;5.88;4.80;;;28.80;37.70;;;;;;5026593;28;20222;-59
2023/06/25 12:04:30;;;;;;;5.95;5.20;;;28.90;37.10;;;;;;5022289;28;20178;-62
2023/06/25 12:06:55;;;;;;;6.15;5.55;;;28.90;34.30;;;;;;5018867;28;20583;-62
2023/06/25 12:09:21;;;;;;;6.75;5.20;;;28.80;35.30;;;;;;5024555;28;20195;-59
2023/06/25 12:11:47;;;;;;;8.80;6.10;;;28.90;36.60;;;;;;5027137;28;20640;-59
2023/06/25 12:14:12;;;;;;;6.60;5.40;;;29.00;35.20;;;;;;5042139;28;20266;-64
2023/06/25 12:16:38;;;;;;;5.28;4.78;;;29.10;35.60;;;;;;5025997;28;20184;-61
2023/06/25 12:19:06;;;;;;;6.80;5.13;;;29.20;35.50;;;;;;5024495;28;20200;-60
2023/06/25 12:21:32;;;;;;;5.90;5.10;;;29.30;33.40;;;;;;5029371;28;20207;-63
2023/06/25 12:23:57;;;;;;;7.50;5.30;;;29.50;33.70;;;;;;5025064;28;20175;-61
2023/06/25 12:26:23;;;;;;;5.68;5.03;;;29.50;33.90;;;;;;5030242;28;20171;-59
2023/06/25 12:28:49;;;;;;;6.43;5.13;;;29.60;33.30;;;;;;5019501;28;20227;-60
2023/06/25 12:31:15;;;;;;;5.80;5.13;;;29.60;34.90;;;;;;5022314;28;20270;-62
2023/06/25 12:33:41;;;;;;;5.10;4.60;;;29.80;36.00;;;;;;5022514;28;20331;-61
2023/06/25 12:36:07;;;;;;;7.20;5.78;;;29.90;35.90;;;;;;5028061;28;20645;-65
2023/06/25 12:38:32;;;;;;;6.85;5.32;;;30.00;34.00;;;;;;5018730;28;20196;-61
2023/06/25 12:40:58;;;;;;;6.10;5.05;;;30.10;33.40;;;;;;5026765;28;20200;-62
2023/06/25 12:43:24;;;;;;;8.48;5.93;;;30.20;31.00;;;;;;5028404;28;20171;-60